sensor_id;sensor_type;location;lat;lon;timestamp;P1;durP1;ratioP1;P2;durP2;ratioP2
15899;SDS011;8048;50.644;6.184;2023-03-01T00:01:02;6.07;;;4.97;;
15899;SDS011;8048;50.644;6.184;2023-03-01T00:03:28;30.75;;;13.25;;
15899;SDS011;8048;50.644;6.184;2023-03-01T00:05:54;15.30;;;8.10;;
15899;SDS011;8048;50.644;6.184;2023-03-01T00:08:19;11.10;;;7.83;;
15899;SDS011;8048;50.644;6.184;2023-03-01T00:10:45;27.67;;;14.53;;
15899;SDS011;8048;50.644;6.184;2023-03-01T00:13:10;57.07;;;26.20;;
15899;SDS011;8048;50.644;6.184;2023-03-01T00:15:39;11.13;;;6.70;;
15899;SDS011;8048;50.644;6.184;2023-03-01T00:18:06;4.07;;;3.70;;
15899;SDS011;8048;50.644;6.184;2023-03-01T00:20:33;8.65;;;6.68;;
15899;SDS011;8048;50.644;6.184;2023-03-01T00:22:58;7.30;;;5.20;;
15899;SDS011;8048;50.644;6.184;2023-03-01T00:25:24;8.50;;;6.30;;
15899;SDS011;8048;50.644;6.184;2023-03-01T00:27:49;13.33;;;9.77;;
15899;SDS011;8048;50.644;6.184;2023-03-01T00:30:15;47.50;;;27.70;;
15899;SDS011;8048;50.644;6.184;2023-03-01T00:32:41;22.93;;;16.30;;
15899;SDS011;8048;50.644;6.184;2023-03-01T00:35:06;14.43;;;9.40;;
15899;SDS011;8048;50.644;6.184;2023-03-01T00:37:32;125.17;;;49.97;;
15899;SDS011;8048;50.644;6.184;2023-03-01T00:39:58;95.60;;;55.77;;
15899;SDS011;8048;50.644;6.184;2023-03-01T00:42:23;37.87;;;24.17;;
15899;SDS011;8048;50.644;6.184;2023-03-01T00:44:49;22.70;;;13.53;;
15899;SDS011;8048;50.644;6.184;2023-03-01T00:47:14;18.13;;;13.10;;
15899;SDS011;8048;50.644;6.184;2023-03-01T00:49:40;24.37;;;13.67;;
15899;SDS011;8048;50.644;6.184;2023-03-01T00:52:05;16.23;;;12.50;;
15899;SDS011;8048;50.644;6.184;2023-03-01T00:54:31;42.37;;;29.07;;
15899;SDS011;8048;50.644;6.184;2023-03-01T00:56:56;18.53;;;13.23;;
15899;SDS011;8048;50.644;6.184;2023-03-01T00:59:22;20.97;;;16.70;;
15899;SDS011;8048;50.644;6.184;2023-03-01T01:01:47;21.70;;;16.50;;
15899;SDS011;8048;50.644;6.184;2023-03-01T01:04:13;18.33;;;12.47;;
15899;SDS011;8048;50.644;6.184;2023-03-01T01:09:10;15.35;;;11.00;;
15899;SDS011;8048;50.644;6.184;2023-03-01T01:11:44;14.02;;;9.57;;
15899;SDS011;8048;50.644;6.184;2023-03-01T01:14:11;14.30;;;8.35;;
15899;SDS011;8048;50.644;6.184;2023-03-01T01:16:37;12.68;;;9.88;;
15899;SDS011;8048;50.644;6.184;2023-03-01T01:19:03;7.53;;;6.20;;
15899;SDS011;8048;50.644;6.184;2023-03-01T01:21:29;8.23;;;6.03;;
15899;SDS011;8048;50.644;6.184;2023-03-01T01:23:54;6.80;;;6.20;;
15899;SDS011;8048;50.644;6.184;2023-03-01T01:26:25;6.68;;;6.07;;
15899;SDS011;8048;50.644;6.184;2023-03-01T01:28:53;6.85;;;5.95;;
15899;SDS011;8048;50.644;6.184;2023-03-01T01:31:19;7.75;;;7.03;;
15899;SDS011;8048;50.644;6.184;2023-03-01T01:33:45;5.45;;;4.72;;
15899;SDS011;8048;50.644;6.184;2023-03-01T01:36:11;7.95;;;7.10;;
15899;SDS011;8048;50.644;6.184;2023-03-01T01:38:37;6.37;;;5.77;;
15899;SDS011;8048;50.644;6.184;2023-03-01T01:41:04;10.38;;;5.32;;
15899;SDS011;8048;50.644;6.184;2023-03-01T01:43:36;7.22;;;5.53;;
15899;SDS011;8048;50.644;6.184;2023-03-01T01:46:04;8.15;;;5.95;;
15899;SDS011;8048;50.644;6.184;2023-03-01T01:48:39;7.32;;;5.80;;
15899;SDS011;8048;50.644;6.184;2023-03-01T01:51:12;5.70;;;5.20;;
15899;SDS011;8048;50.644;6.184;2023-03-01T01:53:40;7.30;;;6.13;;
15899;SDS011;8048;50.644;6.184;2023-03-01T01:56:07;6.15;;;5.60;;
15899;SDS011;8048;50.644;6.184;2023-03-01T01:58:34;9.30;;;5.95;;
15899;SDS011;8048;50.644;6.184;2023-03-01T02:01:01;5.95;;;5.45;;
15899;SDS011;8048;50.644;6.184;2023-03-01T02:03:29;7.80;;;5.70;;
15899;SDS011;8048;50.644;6.184;2023-03-01T02:08:30;8.43;;;6.03;;
15899;SDS011;8048;50.644;6.184;2023-03-01T02:10:58;9.38;;;6.55;;
15899;SDS011;8048;50.644;6.184;2023-03-01T02:13:26;6.25;;;5.65;;
15899;SDS011;8048;50.644;6.184;2023-03-01T02:15:52;5.60;;;5.20;;
15899;SDS011;8048;50.644;6.184;2023-03-01T02:18:18;5.80;;;5.17;;
15899;SDS011;8048;50.644;6.184;2023-03-01T02:23:24;6.13;;;5.53;;
15899;SDS011;8048;50.644;6.184;2023-03-01T02:28:35;6.03;;;5.40;;
15899;SDS011;8048;50.644;6.184;2023-03-01T02:31:03;7.93;;;4.25;;
15899;SDS011;8048;50.644;6.184;2023-03-01T02:33:50;8.40;;;6.32;;
15899;SDS011;8048;50.644;6.184;2023-03-01T02:36:19;5.10;;;4.63;;
15899;SDS011;8048;50.644;6.184;2023-03-01T02:38:47;9.88;;;5.45;;
15899;SDS011;8048;50.644;6.184;2023-03-01T02:41:15;5.68;;;4.95;;
15899;SDS011;8048;50.644;6.184;2023-03-01T02:43:43;9.23;;;6.85;;
15899;SDS011;8048;50.644;6.184;2023-03-01T02:46:16;6.03;;;4.50;;
15899;SDS011;8048;50.644;6.184;2023-03-01T02:48:54;5.78;;;4.45;;
15899;SDS011;8048;50.644;6.184;2023-03-01T02:54:33;4.63;;;4.22;;
15899;SDS011;8048;50.644;6.184;2023-03-01T02:57:13;5.20;;;4.65;;
15899;SDS011;8048;50.644;6.184;2023-03-01T02:59:39;5.82;;;5.32;;
15899;SDS011;8048;50.644;6.184;2023-03-01T03:02:21;5.35;;;5.05;;
15899;SDS011;8048;50.644;6.184;2023-03-01T03:05:10;8.88;;;5.68;;
15899;SDS011;8048;50.644;6.184;2023-03-01T03:07:39;6.53;;;5.90;;
15899;SDS011;8048;50.644;6.184;2023-03-01T03:10:07;6.72;;;5.43;;
15899;SDS011;8048;50.644;6.184;2023-03-01T03:12:39;5.68;;;5.18;;
15899;SDS011;8048;50.644;6.184;2023-03-01T03:15:06;9.27;;;6.50;;
15899;SDS011;8048;50.644;6.184;2023-03-01T03:17:35;7.57;;;6.88;;
15899;SDS011;8048;50.644;6.184;2023-03-01T03:20:03;7.53;;;6.80;;
15899;SDS011;8048;50.644;6.184;2023-03-01T03:22:30;8.75;;;6.50;;
15899;SDS011;8048;50.644;6.184;2023-03-01T03:24:58;7.32;;;4.97;;
15899;SDS011;8048;50.644;6.184;2023-03-01T03:27:24;8.07;;;6.37;;
15899;SDS011;8048;50.644;6.184;2023-03-01T03:29:50;6.00;;;5.50;;
15899;SDS011;8048;50.644;6.184;2023-03-01T03:32:15;6.83;;;6.13;;
15899;SDS011;8048;50.644;6.184;2023-03-01T03:34:41;8.43;;;7.00;;
15899;SDS011;8048;50.644;6.184;2023-03-01T03:37:06;8.50;;;6.23;;
15899;SDS011;8048;50.644;6.184;2023-03-01T03:39:52;10.07;;;6.95;;
15899;SDS011;8048;50.644;6.184;2023-03-01T03:42:19;6.95;;;6.32;;
15899;SDS011;8048;50.644;6.184;2023-03-01T03:44:46;10.10;;;7.03;;
15899;SDS011;8048;50.644;6.184;2023-03-01T03:47:11;8.50;;;6.97;;
15899;SDS011;8048;50.644;6.184;2023-03-01T03:49:37;6.93;;;6.23;;
15899;SDS011;8048;50.644;6.184;2023-03-01T03:52:02;5.93;;;5.30;;
15899;SDS011;8048;50.644;6.184;2023-03-01T03:54:28;7.87;;;6.00;;
15899;SDS011;8048;50.644;6.184;2023-03-01T03:56:54;6.97;;;6.37;;
15899;SDS011;8048;50.644;6.184;2023-03-01T03:59:19;5.40;;;4.90;;
15899;SDS011;8048;50.644;6.184;2023-03-01T04:01:45;14.37;;;6.93;;
15899;SDS011;8048;50.644;6.184;2023-03-01T04:04:10;10.53;;;5.10;;
15899;SDS011;8048;50.644;6.184;2023-03-01T04:06:36;6.43;;;5.83;;
15899;SDS011;8048;50.644;6.184;2023-03-01T04:09:01;7.13;;;6.03;;
15899;SDS011;8048;50.644;6.184;2023-03-01T04:11:27;7.60;;;5.97;;
15899;SDS011;8048;50.644;6.184;2023-03-01T04:13:53;9.87;;;6.23;;
15899;SDS011;8048;50.644;6.184;2023-03-01T04:16:20;7.68;;;5.78;;
15899;SDS011;8048;50.644;6.184;2023-03-01T04:18:46;6.43;;;5.83;;
15899;SDS011;8048;50.644;6.184;2023-03-01T04:21:12;7.40;;;6.70;;
15899;SDS011;8048;50.644;6.184;2023-03-01T04:23:38;6.30;;;5.70;;
15899;SDS011;8048;50.644;6.184;2023-03-01T04:26:05;15.55;;;7.50;;
15899;SDS011;8048;50.644;6.184;2023-03-01T04:28:32;8.60;;;5.90;;
15899;SDS011;8048;50.644;6.184;2023-03-01T04:31:02;8.13;;;5.45;;
15899;SDS011;8048;50.644;6.184;2023-03-01T04:33:46;7.10;;;6.40;;
15899;SDS011;8048;50.644;6.184;2023-03-01T04:36:14;11.63;;;6.82;;
15899;SDS011;8048;50.644;6.184;2023-03-01T04:38:41;7.90;;;7.10;;
15899;SDS011;8048;50.644;6.184;2023-03-01T04:41:09;6.72;;;6.03;;
15899;SDS011;8048;50.644;6.184;2023-03-01T04:43:35;8.40;;;6.20;;
15899;SDS011;8048;50.644;6.184;2023-03-01T04:46:02;6.82;;;5.72;;
15899;SDS011;8048;50.644;6.184;2023-03-01T04:48:31;6.80;;;6.18;;
15899;SDS011;8048;50.644;6.184;2023-03-01T04:50:57;12.88;;;6.80;;
15899;SDS011;8048;50.644;6.184;2023-03-01T04:53:24;8.52;;;6.43;;
15899;SDS011;8048;50.644;6.184;2023-03-01T04:55:50;4.45;;;4.15;;
15899;SDS011;8048;50.644;6.184;2023-03-01T04:58:16;7.10;;;6.40;;
15899;SDS011;8048;50.644;6.184;2023-03-01T05:00:41;7.70;;;6.40;;
15899;SDS011;8048;50.644;6.184;2023-03-01T05:03:07;5.83;;;5.20;;
15899;SDS011;8048;50.644;6.184;2023-03-01T05:05:34;5.85;;;5.28;;
15899;SDS011;8048;50.644;6.184;2023-03-01T05:08:03;6.25;;;5.72;;
15899;SDS011;8048;50.644;6.184;2023-03-01T05:10:31;10.70;;;5.22;;
15899;SDS011;8048;50.644;6.184;2023-03-01T05:12:58;8.00;;;6.95;;
15899;SDS011;8048;50.644;6.184;2023-03-01T05:15:25;11.32;;;5.85;;
15899;SDS011;8048;50.644;6.184;2023-03-01T05:17:52;8.65;;;6.60;;
15899;SDS011;8048;50.644;6.184;2023-03-01T05:20:19;8.93;;;7.18;;
15899;SDS011;8048;50.644;6.184;2023-03-01T05:22:47;9.30;;;6.40;;
15899;SDS011;8048;50.644;6.184;2023-03-01T05:25:13;9.70;;;7.40;;
15899;SDS011;8048;50.644;6.184;2023-03-01T05:27:39;6.77;;;5.43;;
15899;SDS011;8048;50.644;6.184;2023-03-01T05:30:05;5.33;;;4.83;;
15899;SDS011;8048;50.644;6.184;2023-03-01T05:32:38;6.63;;;5.28;;
15899;SDS011;8048;50.644;6.184;2023-03-01T05:35:11;9.30;;;7.05;;
15899;SDS011;8048;50.644;6.184;2023-03-01T05:37:39;9.52;;;5.93;;
15899;SDS011;8048;50.644;6.184;2023-03-01T05:40:06;5.97;;;5.38;;
15899;SDS011;8048;50.644;6.184;2023-03-01T05:42:40;11.45;;;7.22;;
15899;SDS011;8048;50.644;6.184;2023-03-01T05:45:09;5.18;;;4.65;;
15899;SDS011;8048;50.644;6.184;2023-03-01T05:47:35;9.53;;;7.33;;
15899;SDS011;8048;50.644;6.184;2023-03-01T05:50:01;5.50;;;4.40;;
15899;SDS011;8048;50.644;6.184;2023-03-01T05:52:27;8.02;;;6.20;;
15899;SDS011;8048;50.644;6.184;2023-03-01T05:54:52;14.20;;;6.33;;
15899;SDS011;8048;50.644;6.184;2023-03-01T05:57:18;7.10;;;6.50;;
15899;SDS011;8048;50.644;6.184;2023-03-01T05:59:43;6.17;;;5.57;;
15899;SDS011;8048;50.644;6.184;2023-03-01T06:02:10;8.32;;;6.50;;
15899;SDS011;8048;50.644;6.184;2023-03-01T06:04:36;8.73;;;6.10;;
15899;SDS011;8048;50.644;6.184;2023-03-01T06:07:01;6.10;;;5.50;;
15899;SDS011;8048;50.644;6.184;2023-03-01T06:09:27;10.00;;;6.90;;
15899;SDS011;8048;50.644;6.184;2023-03-01T06:11:52;7.50;;;5.70;;
15899;SDS011;8048;50.644;6.184;2023-03-01T06:14:18;6.77;;;6.27;;
15899;SDS011;8048;50.644;6.184;2023-03-01T06:16:45;6.88;;;5.13;;
15899;SDS011;8048;50.644;6.184;2023-03-01T06:19:11;9.70;;;4.97;;
15899;SDS011;8048;50.644;6.184;2023-03-01T06:21:36;9.97;;;6.20;;
15899;SDS011;8048;50.644;6.184;2023-03-01T06:24:02;5.57;;;4.40;;
15899;SDS011;8048;50.644;6.184;2023-03-01T06:26:27;6.67;;;5.97;;
15899;SDS011;8048;50.644;6.184;2023-03-01T06:28:53;6.30;;;4.57;;
15899;SDS011;8048;50.644;6.184;2023-03-01T06:31:18;6.43;;;5.73;;
15899;SDS011;8048;50.644;6.184;2023-03-01T06:33:44;6.90;;;6.30;;
15899;SDS011;8048;50.644;6.184;2023-03-01T06:36:09;7.13;;;6.53;;
15899;SDS011;8048;50.644;6.184;2023-03-01T06:38:35;9.33;;;5.33;;
15899;SDS011;8048;50.644;6.184;2023-03-01T06:41:01;8.03;;;5.07;;
15899;SDS011;8048;50.644;6.184;2023-03-01T06:43:26;11.50;;;7.87;;
15899;SDS011;8048;50.644;6.184;2023-03-01T06:45:52;10.67;;;7.73;;
15899;SDS011;8048;50.644;6.184;2023-03-01T06:48:17;8.40;;;5.93;;
15899;SDS011;8048;50.644;6.184;2023-03-01T06:50:43;5.57;;;5.17;;
15899;SDS011;8048;50.644;6.184;2023-03-01T06:53:08;8.27;;;6.40;;
15899;SDS011;8048;50.644;6.184;2023-03-01T06:55:34;6.40;;;5.70;;
15899;SDS011;8048;50.644;6.184;2023-03-01T06:58:00;8.30;;;7.50;;
15899;SDS011;8048;50.644;6.184;2023-03-01T07:00:26;6.82;;;6.13;;
15899;SDS011;8048;50.644;6.184;2023-03-01T07:02:52;21.65;;;13.05;;
15899;SDS011;8048;50.644;6.184;2023-03-01T07:05:18;16.60;;;7.40;;
15899;SDS011;8048;50.644;6.184;2023-03-01T07:07:44;9.77;;;8.05;;
15899;SDS011;8048;50.644;6.184;2023-03-01T07:10:10;8.90;;;6.27;;
15899;SDS011;8048;50.644;6.184;2023-03-01T07:12:36;6.88;;;6.22;;
15899;SDS011;8048;50.644;6.184;2023-03-01T07:15:01;12.13;;;6.20;;
15899;SDS011;8048;50.644;6.184;2023-03-01T07:17:27;12.63;;;7.80;;
15899;SDS011;8048;50.644;6.184;2023-03-01T07:19:53;12.50;;;7.80;;
15899;SDS011;8048;50.644;6.184;2023-03-01T07:22:18;8.83;;;6.70;;
15899;SDS011;8048;50.644;6.184;2023-03-01T07:24:44;8.80;;;7.87;;
15899;SDS011;8048;50.644;6.184;2023-03-01T07:27:09;7.87;;;7.20;;
15899;SDS011;8048;50.644;6.184;2023-03-01T07:29:35;7.90;;;7.17;;
15899;SDS011;8048;50.644;6.184;2023-03-01T07:32:04;19.13;;;9.88;;
15899;SDS011;8048;50.644;6.184;2023-03-01T07:34:30;9.90;;;7.10;;
15899;SDS011;8048;50.644;6.184;2023-03-01T07:36:56;10.53;;;6.87;;
15899;SDS011;8048;50.644;6.184;2023-03-01T07:39:21;18.10;;;8.70;;
15899;SDS011;8048;50.644;6.184;2023-03-01T07:41:50;17.48;;;8.38;;
15899;SDS011;8048;50.644;6.184;2023-03-01T07:44:16;15.50;;;8.60;;
15899;SDS011;8048;50.644;6.184;2023-03-01T07:46:42;11.40;;;10.20;;
15899;SDS011;8048;50.644;6.184;2023-03-01T07:49:08;8.02;;;7.28;;
15899;SDS011;8048;50.644;6.184;2023-03-01T07:51:33;14.40;;;8.63;;
15899;SDS011;8048;50.644;6.184;2023-03-01T07:53:59;13.33;;;10.53;;
15899;SDS011;8048;50.644;6.184;2023-03-01T07:56:25;11.40;;;9.07;;
15899;SDS011;8048;50.644;6.184;2023-03-01T07:58:50;12.20;;;9.50;;
15899;SDS011;8048;50.644;6.184;2023-03-01T08:01:17;12.80;;;10.43;;
15899;SDS011;8048;50.644;6.184;2023-03-01T08:03:44;11.32;;;8.90;;
15899;SDS011;8048;50.644;6.184;2023-03-01T08:06:10;10.50;;;8.50;;
15899;SDS011;8048;50.644;6.184;2023-03-01T08:08:37;14.70;;;9.25;;
15899;SDS011;8048;50.644;6.184;2023-03-01T08:11:04;17.73;;;9.73;;
15899;SDS011;8048;50.644;6.184;2023-03-01T08:13:31;15.07;;;11.00;;
15899;SDS011;8048;50.644;6.184;2023-03-01T08:16:00;13.23;;;10.02;;
15899;SDS011;8048;50.644;6.184;2023-03-01T08:18:27;12.18;;;10.38;;
15899;SDS011;8048;50.644;6.184;2023-03-01T08:20:53;18.00;;;10.70;;
15899;SDS011;8048;50.644;6.184;2023-03-01T08:23:18;16.30;;;10.87;;
15899;SDS011;8048;50.644;6.184;2023-03-01T08:25:44;16.17;;;10.30;;
15899;SDS011;8048;50.644;6.184;2023-03-01T08:28:09;9.97;;;8.97;;
15899;SDS011;8048;50.644;6.184;2023-03-01T08:30:35;14.73;;;9.87;;
15899;SDS011;8048;50.644;6.184;2023-03-01T08:33:00;10.03;;;8.70;;
15899;SDS011;8048;50.644;6.184;2023-03-01T08:35:26;14.73;;;10.17;;
15899;SDS011;8048;50.644;6.184;2023-03-01T08:37:51;15.97;;;12.00;;
15899;SDS011;8048;50.644;6.184;2023-03-01T08:40:17;9.20;;;8.30;;
15899;SDS011;8048;50.644;6.184;2023-03-01T08:42:42;13.03;;;9.93;;
15899;SDS011;8048;50.644;6.184;2023-03-01T08:45:08;13.73;;;9.60;;
15899;SDS011;8048;50.644;6.184;2023-03-01T08:47:35;15.82;;;10.32;;
15899;SDS011;8048;50.644;6.184;2023-03-01T08:50:00;14.10;;;10.57;;
15899;SDS011;8048;50.644;6.184;2023-03-01T08:52:26;14.50;;;10.43;;
15899;SDS011;8048;50.644;6.184;2023-03-01T08:54:52;9.85;;;8.10;;
15899;SDS011;8048;50.644;6.184;2023-03-01T08:57:18;16.83;;;10.90;;
15899;SDS011;8048;50.644;6.184;2023-03-01T08:59:43;16.30;;;10.77;;
15899;SDS011;8048;50.644;6.184;2023-03-01T09:02:13;11.07;;;9.23;;
15899;SDS011;8048;50.644;6.184;2023-03-01T09:04:40;13.55;;;10.55;;
15899;SDS011;8048;50.644;6.184;2023-03-01T09:07:07;11.60;;;8.47;;
15899;SDS011;8048;50.644;6.184;2023-03-01T09:09:33;18.02;;;10.57;;
15899;SDS011;8048;50.644;6.184;2023-03-01T09:11:59;11.98;;;8.65;;
15899;SDS011;8048;50.644;6.184;2023-03-01T09:14:25;11.33;;;8.87;;
15899;SDS011;8048;50.644;6.184;2023-03-01T09:16:51;13.13;;;7.90;;
15899;SDS011;8048;50.644;6.184;2023-03-01T09:19:16;11.93;;;8.80;;
15899;SDS011;8048;50.644;6.184;2023-03-01T09:21:42;13.37;;;10.00;;
15899;SDS011;8048;50.644;6.184;2023-03-01T09:24:17;11.20;;;9.23;;
15899;SDS011;8048;50.644;6.184;2023-03-01T09:26:43;10.87;;;8.20;;
15899;SDS011;8048;50.644;6.184;2023-03-01T09:29:11;11.70;;;8.77;;
15899;SDS011;8048;50.644;6.184;2023-03-01T09:31:37;14.87;;;9.30;;
15899;SDS011;8048;50.644;6.184;2023-03-01T09:34:03;12.10;;;9.03;;
15899;SDS011;8048;50.644;6.184;2023-03-01T09:36:29;12.77;;;9.77;;
15899;SDS011;8048;50.644;6.184;2023-03-01T09:38:55;10.03;;;8.73;;
15899;SDS011;8048;50.644;6.184;2023-03-01T09:41:31;11.00;;;9.03;;
15899;SDS011;8048;50.644;6.184;2023-03-01T09:47:04;11.83;;;8.27;;
15899;SDS011;8048;50.644;6.184;2023-03-01T09:49:35;13.63;;;10.30;;
15899;SDS011;8048;50.644;6.184;2023-03-01T09:52:25;11.93;;;9.90;;
15899;SDS011;8048;50.644;6.184;2023-03-01T09:54:53;13.60;;;8.97;;
15899;SDS011;8048;50.644;6.184;2023-03-01T10:00:16;10.50;;;8.30;;
15899;SDS011;8048;50.644;6.184;2023-03-01T10:02:51;7.80;;;7.00;;
15899;SDS011;8048;50.644;6.184;2023-03-01T10:08:01;15.97;;;11.57;;
15899;SDS011;8048;50.644;6.184;2023-03-01T10:10:40;10.30;;;8.63;;
15899;SDS011;8048;50.644;6.184;2023-03-01T10:13:23;12.20;;;9.10;;
15899;SDS011;8048;50.644;6.184;2023-03-01T10:15:57;12.33;;;9.17;;
15899;SDS011;8048;50.644;6.184;2023-03-01T10:18:29;11.30;;;9.77;;
15899;SDS011;8048;50.644;6.184;2023-03-01T10:23:26;11.10;;;8.87;;
15899;SDS011;8048;50.644;6.184;2023-03-01T10:28:44;13.73;;;10.20;;
15899;SDS011;8048;50.644;6.184;2023-03-01T10:31:30;9.37;;;8.43;;
15899;SDS011;8048;50.644;6.184;2023-03-01T10:34:02;11.90;;;8.77;;
15899;SDS011;8048;50.644;6.184;2023-03-01T10:36:33;11.97;;;9.20;;
15899;SDS011;8048;50.644;6.184;2023-03-01T10:38:59;14.20;;;10.33;;
15899;SDS011;8048;50.644;6.184;2023-03-01T10:41:37;11.20;;;10.10;;
15899;SDS011;8048;50.644;6.184;2023-03-01T10:44:34;13.33;;;8.20;;
15899;SDS011;8048;50.644;6.184;2023-03-01T10:47:05;10.23;;;8.67;;
15899;SDS011;8048;50.644;6.184;2023-03-01T10:50:04;11.07;;;7.87;;
15899;SDS011;8048;50.644;6.184;2023-03-01T10:52:32;9.97;;;8.63;;
15899;SDS011;8048;50.644;6.184;2023-03-01T10:57:40;15.77;;;10.30;;
15899;SDS011;8048;50.644;6.184;2023-03-01T11:00:14;12.13;;;9.93;;
15899;SDS011;8048;50.644;6.184;2023-03-01T11:02:46;10.53;;;8.50;;
15899;SDS011;8048;50.644;6.184;2023-03-01T11:05:26;11.60;;;9.83;;
15899;SDS011;8048;50.644;6.184;2023-03-01T11:07:56;12.60;;;10.07;;
15899;SDS011;8048;50.644;6.184;2023-03-01T11:12:51;13.10;;;9.87;;
15899;SDS011;8048;50.644;6.184;2023-03-01T11:15:24;12.00;;;10.80;;
15899;SDS011;8048;50.644;6.184;2023-03-01T11:17:52;11.93;;;10.60;;
15899;SDS011;8048;50.644;6.184;2023-03-01T11:20:29;13.97;;;10.30;;
15899;SDS011;8048;50.644;6.184;2023-03-01T11:22:59;14.07;;;11.13;;
15899;SDS011;8048;50.644;6.184;2023-03-01T11:25:31;14.10;;;9.93;;
15899;SDS011;8048;50.644;6.184;2023-03-01T11:28:01;12.43;;;9.60;;
15899;SDS011;8048;50.644;6.184;2023-03-01T11:30:29;12.47;;;9.97;;
15899;SDS011;8048;50.644;6.184;2023-03-01T11:38:34;11.67;;;10.27;;
15899;SDS011;8048;50.644;6.184;2023-03-01T11:43:49;10.20;;;9.13;;
15899;SDS011;8048;50.644;6.184;2023-03-01T11:46:29;10.40;;;9.37;;
15899;SDS011;8048;50.644;6.184;2023-03-01T11:54:22;11.23;;;10.03;;
15899;SDS011;8048;50.644;6.184;2023-03-01T12:00:15;10.47;;;9.37;;
15899;SDS011;8048;50.644;6.184;2023-03-01T12:05:50;12.00;;;10.40;;
15899;SDS011;8048;50.644;6.184;2023-03-01T12:16:57;9.77;;;8.77;;
15899;SDS011;8048;50.644;6.184;2023-03-01T12:19:58;11.63;;;10.10;;
15899;SDS011;8048;50.644;6.184;2023-03-01T12:25:45;11.07;;;10.07;;
15899;SDS011;8048;50.644;6.184;2023-03-01T12:33:45;11.50;;;10.30;;
15899;SDS011;8048;50.644;6.184;2023-03-01T12:36:41;11.40;;;9.97;;
15899;SDS011;8048;50.644;6.184;2023-03-01T12:39:32;12.27;;;10.97;;
15899;SDS011;8048;50.644;6.184;2023-03-01T12:42:18;14.47;;;9.87;;
15899;SDS011;8048;50.644;6.184;2023-03-01T12:50:05;13.07;;;10.77;;
15899;SDS011;8048;50.644;6.184;2023-03-01T12:52:49;10.80;;;9.77;;
15899;SDS011;8048;50.644;6.184;2023-03-01T12:55:33;11.30;;;10.10;;
15899;SDS011;8048;50.644;6.184;2023-03-01T13:00:52;10.53;;;9.43;;
15899;SDS011;8048;50.644;6.184;2023-03-01T13:03:30;12.80;;;11.63;;
15899;SDS011;8048;50.644;6.184;2023-03-01T13:06:30;11.53;;;10.40;;
15899;SDS011;8048;50.644;6.184;2023-03-01T13:09:09;12.17;;;11.07;;
15899;SDS011;8048;50.644;6.184;2023-03-01T13:17:49;11.40;;;10.30;;
15899;SDS011;8048;50.644;6.184;2023-03-01T13:20:19;12.57;;;11.27;;
15899;SDS011;8048;50.644;6.184;2023-03-01T13:22:46;12.50;;;11.00;;
15899;SDS011;8048;50.644;6.184;2023-03-01T13:25:14;13.10;;;10.50;;
15899;SDS011;8048;50.644;6.184;2023-03-01T13:27:44;12.53;;;10.30;;
15899;SDS011;8048;50.644;6.184;2023-03-01T13:35:52;11.10;;;10.00;;
15899;SDS011;8048;50.644;6.184;2023-03-01T13:41:14;14.63;;;11.53;;
15899;SDS011;8048;50.644;6.184;2023-03-01T13:43:42;11.97;;;10.63;;
15899;SDS011;8048;50.644;6.184;2023-03-01T13:46:12;11.67;;;10.50;;
15899;SDS011;8048;50.644;6.184;2023-03-01T13:48:47;12.10;;;10.67;;
15899;SDS011;8048;50.644;6.184;2023-03-01T13:51:20;19.33;;;12.50;;
15899;SDS011;8048;50.644;6.184;2023-03-01T13:53:49;12.87;;;10.43;;
15899;SDS011;8048;50.644;6.184;2023-03-01T13:56:19;11.03;;;9.97;;
15899;SDS011;8048;50.644;6.184;2023-03-01T13:58:59;14.03;;;11.30;;
15899;SDS011;8048;50.644;6.184;2023-03-01T14:01:33;13.37;;;12.07;;
15899;SDS011;8048;50.644;6.184;2023-03-01T14:04:01;13.90;;;12.50;;
15899;SDS011;8048;50.644;6.184;2023-03-01T14:06:32;17.63;;;10.77;;
15899;SDS011;8048;50.644;6.184;2023-03-01T14:09:20;12.70;;;11.40;;
15899;SDS011;8048;50.644;6.184;2023-03-01T14:19:34;13.30;;;10.90;;
15899;SDS011;8048;50.644;6.184;2023-03-01T14:22:10;12.73;;;11.23;;
15899;SDS011;8048;50.644;6.184;2023-03-01T14:24:38;12.20;;;10.50;;
15899;SDS011;8048;50.644;6.184;2023-03-01T14:27:10;10.27;;;9.27;;
15899;SDS011;8048;50.644;6.184;2023-03-01T14:29:38;13.10;;;10.97;;
15899;SDS011;8048;50.644;6.184;2023-03-01T14:34:38;11.73;;;9.23;;
15899;SDS011;8048;50.644;6.184;2023-03-01T14:37:10;12.20;;;10.53;;
15899;SDS011;8048;50.644;6.184;2023-03-01T14:39:42;13.17;;;9.80;;
15899;SDS011;8048;50.644;6.184;2023-03-01T14:42:08;10.10;;;9.10;;
15899;SDS011;8048;50.644;6.184;2023-03-01T14:44:33;11.83;;;10.53;;
15899;SDS011;8048;50.644;6.184;2023-03-01T14:47:02;10.77;;;9.67;;
15899;SDS011;8048;50.644;6.184;2023-03-01T14:49:29;11.33;;;9.47;;
15899;SDS011;8048;50.644;6.184;2023-03-01T14:51:59;14.93;;;9.57;;
15899;SDS011;8048;50.644;6.184;2023-03-01T14:54:28;10.33;;;9.20;;
15899;SDS011;8048;50.644;6.184;2023-03-01T14:57:02;21.63;;;10.70;;
15899;SDS011;8048;50.644;6.184;2023-03-01T14:59:28;12.07;;;9.50;;
15899;SDS011;8048;50.644;6.184;2023-03-01T15:01:55;10.50;;;9.50;;
15899;SDS011;8048;50.644;6.184;2023-03-01T15:04:22;16.73;;;8.83;;
15899;SDS011;8048;50.644;6.184;2023-03-01T15:06:52;19.23;;;9.90;;
15899;SDS011;8048;50.644;6.184;2023-03-01T15:09:19;11.77;;;9.60;;
15899;SDS011;8048;50.644;6.184;2023-03-01T15:11:45;8.83;;;8.03;;
15899;SDS011;8048;50.644;6.184;2023-03-01T15:19:46;9.50;;;8.47;;
15899;SDS011;8048;50.644;6.184;2023-03-01T15:22:14;9.20;;;8.27;;
15899;SDS011;8048;50.644;6.184;2023-03-01T15:24:41;9.73;;;8.13;;
15899;SDS011;8048;50.644;6.184;2023-03-01T15:27:15;8.70;;;7.90;;
15899;SDS011;8048;50.644;6.184;2023-03-01T15:29:46;9.13;;;8.30;;
15899;SDS011;8048;50.644;6.184;2023-03-01T15:32:28;9.13;;;8.33;;
15899;SDS011;8048;50.644;6.184;2023-03-01T15:34:59;8.97;;;7.87;;
15899;SDS011;8048;50.644;6.184;2023-03-01T15:37:59;9.87;;;8.67;;
15899;SDS011;8048;50.644;6.184;2023-03-01T15:40:19;10.40;;;9.00;;
15899;SDS011;8048;50.644;6.184;2023-03-01T15:42:56;10.17;;;8.00;;
15899;SDS011;8048;50.644;6.184;2023-03-01T15:45:24;10.53;;;9.23;;
15899;SDS011;8048;50.644;6.184;2023-03-01T15:47:53;10.90;;;7.10;;
15899;SDS011;8048;50.644;6.184;2023-03-01T15:50:26;10.10;;;8.93;;
15899;SDS011;8048;50.644;6.184;2023-03-01T15:52:54;15.63;;;10.10;;
15899;SDS011;8048;50.644;6.184;2023-03-01T15:55:24;10.93;;;9.20;;
15899;SDS011;8048;50.644;6.184;2023-03-01T15:58:14;10.97;;;8.90;;
15899;SDS011;8048;50.644;6.184;2023-03-01T16:00:45;10.13;;;8.77;;
15899;SDS011;8048;50.644;6.184;2023-03-01T16:03:13;12.50;;;10.13;;
15899;SDS011;8048;50.644;6.184;2023-03-01T16:05:47;11.63;;;9.40;;
15899;SDS011;8048;50.644;6.184;2023-03-01T16:08:16;12.53;;;10.43;;
15899;SDS011;8048;50.644;6.184;2023-03-01T16:10:42;10.20;;;9.20;;
15899;SDS011;8048;50.644;6.184;2023-03-01T16:13:08;11.53;;;9.77;;
15899;SDS011;8048;50.644;6.184;2023-03-01T16:15:35;11.87;;;8.50;;
15899;SDS011;8048;50.644;6.184;2023-03-01T16:18:00;11.77;;;10.57;;
15899;SDS011;8048;50.644;6.184;2023-03-01T16:20:27;10.13;;;9.13;;
15899;SDS011;8048;50.644;6.184;2023-03-01T16:22:54;18.40;;;10.50;;
15899;SDS011;8048;50.644;6.184;2023-03-01T16:25:22;12.10;;;8.43;;
15899;SDS011;8048;50.644;6.184;2023-03-01T16:27:49;12.20;;;10.97;;
15899;SDS011;8048;50.644;6.184;2023-03-01T16:30:16;10.13;;;9.10;;
15899;SDS011;8048;50.644;6.184;2023-03-01T16:32:45;11.03;;;9.90;;
15899;SDS011;8048;50.644;6.184;2023-03-01T16:35:12;9.43;;;8.27;;
15899;SDS011;8048;50.644;6.184;2023-03-01T16:37:39;22.27;;;10.47;;
15899;SDS011;8048;50.644;6.184;2023-03-01T16:40:06;12.77;;;11.37;;
15899;SDS011;8048;50.644;6.184;2023-03-01T16:42:40;8.50;;;7.70;;
15899;SDS011;8048;50.644;6.184;2023-03-01T16:45:07;14.87;;;9.17;;
15899;SDS011;8048;50.644;6.184;2023-03-01T16:47:33;9.87;;;8.77;;
15899;SDS011;8048;50.644;6.184;2023-03-01T16:49:59;9.73;;;7.93;;